sensor_id;sensor_type;location;lat;lon;timestamp;P1;durP1;ratioP1;P2;durP2;ratioP2
7807;SDS011;3949;49.254;8.894;2024-03-02T00:00:48;15.40;;;12.23;;
7807;SDS011;3949;49.254;8.894;2024-03-02T00:03:14;17.10;;;12.73;;
7807;SDS011;3949;49.254;8.894;2024-03-02T00:05:40;16.10;;;13.07;;
7807;SDS011;3949;49.254;8.894;2024-03-02T00:08:06;17.00;;;12.20;;
7807;SDS011;3949;49.254;8.894;2024-03-02T00:10:40;15.23;;;11.77;;
7807;SDS011;3949;49.254;8.894;2024-03-02T00:13:06;18.03;;;12.60;;
7807;SDS011;3949;49.254;8.894;2024-03-02T00:17:59;16.13;;;12.07;;
7807;SDS011;3949;49.254;8.894;2024-03-02T00:20:24;18.30;;;13.37;;
7807;SDS011;3949;49.254;8.894;2024-03-02T00:22:53;17.50;;;13.00;;
7807;SDS011;3949;49.254;8.894;2024-03-02T00:25:24;17.33;;;12.10;;
7807;SDS011;3949;49.254;8.894;2024-03-02T00:27:50;17.03;;;12.90;;
7807;SDS011;3949;49.254;8.894;2024-03-02T00:30:42;17.13;;;12.07;;
7807;SDS011;3949;49.254;8.894;2024-03-02T00:33:07;18.03;;;13.30;;
7807;SDS011;3949;49.254;8.894;2024-03-02T00:35:33;19.30;;;13.10;;
7807;SDS011;3949;49.254;8.894;2024-03-02T00:38:03;22.90;;;13.57;;
7807;SDS011;3949;49.254;8.894;2024-03-02T00:40:32;17.40;;;12.90;;
7807;SDS011;3949;49.254;8.894;2024-03-02T00:42:58;18.50;;;13.17;;
7807;SDS011;3949;49.254;8.894;2024-03-02T00:45:25;18.57;;;12.70;;
7807;SDS011;3949;49.254;8.894;2024-03-02T00:47:51;17.87;;;12.33;;
7807;SDS011;3949;49.254;8.894;2024-03-02T00:50:18;15.33;;;11.53;;
7807;SDS011;3949;49.254;8.894;2024-03-02T00:52:44;18.30;;;12.83;;
7807;SDS011;3949;49.254;8.894;2024-03-02T00:55:10;14.33;;;11.60;;
7807;SDS011;3949;49.254;8.894;2024-03-02T00:57:36;15.30;;;11.03;;
7807;SDS011;3949;49.254;8.894;2024-03-02T01:00:05;15.97;;;11.63;;
7807;SDS011;3949;49.254;8.894;2024-03-02T01:02:35;18.53;;;12.67;;
7807;SDS011;3949;49.254;8.894;2024-03-02T01:05:01;15.97;;;12.90;;
7807;SDS011;3949;49.254;8.894;2024-03-02T01:07:27;15.80;;;11.30;;
7807;SDS011;3949;49.254;8.894;2024-03-02T01:09:53;18.07;;;13.27;;
7807;SDS011;3949;49.254;8.894;2024-03-02T01:12:19;17.17;;;11.40;;
7807;SDS011;3949;49.254;8.894;2024-03-02T01:14:47;15.80;;;11.27;;
7807;SDS011;3949;49.254;8.894;2024-03-02T01:17:13;17.60;;;12.20;;
7807;SDS011;3949;49.254;8.894;2024-03-02T01:19:39;18.13;;;12.80;;
7807;SDS011;3949;49.254;8.894;2024-03-02T01:22:07;16.13;;;11.70;;
7807;SDS011;3949;49.254;8.894;2024-03-02T01:24:33;18.80;;;13.43;;
7807;SDS011;3949;49.254;8.894;2024-03-02T01:26:59;18.10;;;13.73;;
7807;SDS011;3949;49.254;8.894;2024-03-02T01:29:25;18.97;;;13.27;;
7807;SDS011;3949;49.254;8.894;2024-03-02T01:31:51;19.03;;;13.97;;
7807;SDS011;3949;49.254;8.894;2024-03-02T01:34:19;19.87;;;12.93;;
7807;SDS011;3949;49.254;8.894;2024-03-02T01:36:47;20.97;;;12.57;;
7807;SDS011;3949;49.254;8.894;2024-03-02T01:39:13;16.20;;;11.83;;
7807;SDS011;3949;49.254;8.894;2024-03-02T01:41:42;16.83;;;11.23;;
7807;SDS011;3949;49.254;8.894;2024-03-02T01:44:08;19.13;;;11.97;;
7807;SDS011;3949;49.254;8.894;2024-03-02T01:46:36;16.03;;;11.27;;
7807;SDS011;3949;49.254;8.894;2024-03-02T01:49:02;15.83;;;11.10;;
7807;SDS011;3949;49.254;8.894;2024-03-02T01:51:29;14.60;;;10.97;;
7807;SDS011;3949;49.254;8.894;2024-03-02T01:53:55;16.40;;;12.20;;
7807;SDS011;3949;49.254;8.894;2024-03-02T01:56:21;14.83;;;11.87;;
7807;SDS011;3949;49.254;8.894;2024-03-02T01:58:47;15.30;;;11.50;;
7807;SDS011;3949;49.254;8.894;2024-03-02T02:01:13;15.77;;;10.80;;
7807;SDS011;3949;49.254;8.894;2024-03-02T02:03:41;15.33;;;11.73;;
7807;SDS011;3949;49.254;8.894;2024-03-02T02:06:07;15.27;;;11.37;;
7807;SDS011;3949;49.254;8.894;2024-03-02T02:08:33;17.83;;;11.07;;
7807;SDS011;3949;49.254;8.894;2024-03-02T02:10:59;16.50;;;11.00;;
7807;SDS011;3949;49.254;8.894;2024-03-02T02:13:28;14.40;;;10.70;;
7807;SDS011;3949;49.254;8.894;2024-03-02T02:15:54;16.20;;;11.50;;
7807;SDS011;3949;49.254;8.894;2024-03-02T02:18:20;16.07;;;12.47;;
7807;SDS011;3949;49.254;8.894;2024-03-02T02:20:46;18.33;;;11.43;;
7807;SDS011;3949;49.254;8.894;2024-03-02T02:23:12;14.60;;;10.70;;
7807;SDS011;3949;49.254;8.894;2024-03-02T02:25:38;15.53;;;11.33;;
7807;SDS011;3949;49.254;8.894;2024-03-02T02:28:04;14.30;;;10.60;;
7807;SDS011;3949;49.254;8.894;2024-03-02T02:30:30;14.60;;;10.20;;
7807;SDS011;3949;49.254;8.894;2024-03-02T02:32:57;13.37;;;9.70;;
7807;SDS011;3949;49.254;8.894;2024-03-02T02:35:23;13.53;;;10.23;;
7807;SDS011;3949;49.254;8.894;2024-03-02T02:37:49;14.40;;;10.33;;
7807;SDS011;3949;49.254;8.894;2024-03-02T02:40:16;17.03;;;11.70;;
7807;SDS011;3949;49.254;8.894;2024-03-02T02:42:43;13.50;;;10.20;;
7807;SDS011;3949;49.254;8.894;2024-03-02T02:45:10;16.63;;;10.57;;
7807;SDS011;3949;49.254;8.894;2024-03-02T02:47:38;13.60;;;9.90;;
7807;SDS011;3949;49.254;8.894;2024-03-02T02:50:04;13.43;;;9.27;;
7807;SDS011;3949;49.254;8.894;2024-03-02T02:52:31;14.47;;;9.73;;
7807;SDS011;3949;49.254;8.894;2024-03-02T02:54:58;13.50;;;9.60;;
7807;SDS011;3949;49.254;8.894;2024-03-02T02:57:24;11.93;;;9.37;;
7807;SDS011;3949;49.254;8.894;2024-03-02T02:59:50;14.33;;;10.40;;
7807;SDS011;3949;49.254;8.894;2024-03-02T03:02:18;13.47;;;11.80;;
7807;SDS011;3949;49.254;8.894;2024-03-02T03:04:46;14.00;;;10.80;;
7807;SDS011;3949;49.254;8.894;2024-03-02T03:07:13;15.40;;;10.37;;
7807;SDS011;3949;49.254;8.894;2024-03-02T03:09:41;15.77;;;11.50;;
7807;SDS011;3949;49.254;8.894;2024-03-02T03:12:07;15.93;;;12.20;;
7807;SDS011;3949;49.254;8.894;2024-03-02T03:14:33;19.97;;;12.60;;
7807;SDS011;3949;49.254;8.894;2024-03-02T03:16:59;30.20;;;18.50;;
7807;SDS011;3949;49.254;8.894;2024-03-02T03:19:26;20.70;;;13.33;;
7807;SDS011;3949;49.254;8.894;2024-03-02T03:21:54;20.70;;;13.47;;
7807;SDS011;3949;49.254;8.894;2024-03-02T03:24:20;18.40;;;13.00;;
7807;SDS011;3949;49.254;8.894;2024-03-02T03:26:46;14.30;;;11.07;;
7807;SDS011;3949;49.254;8.894;2024-03-02T03:29:12;13.77;;;10.17;;
7807;SDS011;3949;49.254;8.894;2024-03-02T03:31:38;17.57;;;12.07;;
7807;SDS011;3949;49.254;8.894;2024-03-02T03:34:04;14.87;;;10.67;;
7807;SDS011;3949;49.254;8.894;2024-03-02T03:36:32;20.57;;;14.30;;
7807;SDS011;3949;49.254;8.894;2024-03-02T03:38:58;23.80;;;14.80;;
7807;SDS011;3949;49.254;8.894;2024-03-02T03:41:27;18.77;;;12.87;;
7807;SDS011;3949;49.254;8.894;2024-03-02T03:43:53;15.43;;;11.10;;
7807;SDS011;3949;49.254;8.894;2024-03-02T03:46:19;14.33;;;11.00;;
7807;SDS011;3949;49.254;8.894;2024-03-02T03:48:45;20.07;;;11.93;;
7807;SDS011;3949;49.254;8.894;2024-03-02T03:51:11;15.07;;;11.47;;
7807;SDS011;3949;49.254;8.894;2024-03-02T03:53:37;15.73;;;10.43;;
7807;SDS011;3949;49.254;8.894;2024-03-02T03:56:03;13.27;;;9.70;;
7807;SDS011;3949;49.254;8.894;2024-03-02T03:58:29;15.87;;;10.50;;
7807;SDS011;3949;49.254;8.894;2024-03-02T04:00:55;17.07;;;11.93;;
7807;SDS011;3949;49.254;8.894;2024-03-02T04:03:21;15.37;;;11.30;;
7807;SDS011;3949;49.254;8.894;2024-03-02T04:05:47;15.47;;;11.20;;
7807;SDS011;3949;49.254;8.894;2024-03-02T04:08:13;17.97;;;11.83;;
7807;SDS011;3949;49.254;8.894;2024-03-02T04:10:39;17.17;;;11.60;;
7807;SDS011;3949;49.254;8.894;2024-03-02T04:13:07;19.40;;;12.53;;
7807;SDS011;3949;49.254;8.894;2024-03-02T04:15:33;18.30;;;12.37;;
7807;SDS011;3949;49.254;8.894;2024-03-02T04:17:59;20.60;;;13.20;;
7807;SDS011;3949;49.254;8.894;2024-03-02T04:20:27;18.23;;;11.97;;
7807;SDS011;3949;49.254;8.894;2024-03-02T04:22:53;19.90;;;13.13;;
7807;SDS011;3949;49.254;8.894;2024-03-02T04:25:19;19.87;;;12.97;;
7807;SDS011;3949;49.254;8.894;2024-03-02T04:27:47;19.80;;;11.83;;
7807;SDS011;3949;49.254;8.894;2024-03-02T04:30:13;17.23;;;11.33;;
7807;SDS011;3949;49.254;8.894;2024-03-02T04:32:39;18.37;;;11.77;;
7807;SDS011;3949;49.254;8.894;2024-03-02T04:35:06;16.60;;;10.87;;
7807;SDS011;3949;49.254;8.894;2024-03-02T04:37:34;15.93;;;12.00;;
7807;SDS011;3949;49.254;8.894;2024-03-02T04:40:00;17.27;;;11.33;;
7807;SDS011;3949;49.254;8.894;2024-03-02T04:42:26;18.33;;;12.27;;
7807;SDS011;3949;49.254;8.894;2024-03-02T04:44:54;19.23;;;12.20;;
7807;SDS011;3949;49.254;8.894;2024-03-02T04:47:20;18.87;;;12.70;;
7807;SDS011;3949;49.254;8.894;2024-03-02T04:49:47;20.47;;;11.80;;
7807;SDS011;3949;49.254;8.894;2024-03-02T04:52:13;23.37;;;13.33;;
7807;SDS011;3949;49.254;8.894;2024-03-02T04:54:39;20.03;;;12.53;;
7807;SDS011;3949;49.254;8.894;2024-03-02T04:57:24;23.27;;;13.93;;
7807;SDS011;3949;49.254;8.894;2024-03-02T04:59:50;27.90;;;14.93;;
7807;SDS011;3949;49.254;8.894;2024-03-02T05:02:16;28.63;;;15.57;;
7807;SDS011;3949;49.254;8.894;2024-03-02T05:04:42;26.77;;;15.97;;
7807;SDS011;3949;49.254;8.894;2024-03-02T05:07:08;30.50;;;16.17;;
7807;SDS011;3949;49.254;8.894;2024-03-02T05:09:33;25.80;;;14.87;;
7807;SDS011;3949;49.254;8.894;2024-03-02T05:11:59;29.87;;;16.20;;
7807;SDS011;3949;49.254;8.894;2024-03-02T05:14:48;25.07;;;14.57;;
7807;SDS011;3949;49.254;8.894;2024-03-02T05:17:14;21.73;;;13.93;;
7807;SDS011;3949;49.254;8.894;2024-03-02T05:19:40;22.87;;;13.03;;
7807;SDS011;3949;49.254;8.894;2024-03-02T05:22:06;20.93;;;13.27;;
7807;SDS011;3949;49.254;8.894;2024-03-02T05:24:34;20.70;;;12.90;;
7807;SDS011;3949;49.254;8.894;2024-03-02T05:27:01;20.10;;;12.50;;
7807;SDS011;3949;49.254;8.894;2024-03-02T05:29:29;18.53;;;11.57;;
7807;SDS011;3949;49.254;8.894;2024-03-02T05:31:55;16.97;;;12.50;;
7807;SDS011;3949;49.254;8.894;2024-03-02T05:34:21;18.03;;;12.10;;
7807;SDS011;3949;49.254;8.894;2024-03-02T05:36:47;25.03;;;13.73;;
7807;SDS011;3949;49.254;8.894;2024-03-02T05:39:13;20.40;;;12.13;;
7807;SDS011;3949;49.254;8.894;2024-03-02T05:41:40;20.50;;;12.13;;
7807;SDS011;3949;49.254;8.894;2024-03-02T05:44:06;15.63;;;11.27;;
7807;SDS011;3949;49.254;8.894;2024-03-02T05:46:35;17.43;;;11.77;;
7807;SDS011;3949;49.254;8.894;2024-03-02T05:49:01;18.63;;;11.40;;
7807;SDS011;3949;49.254;8.894;2024-03-02T05:51:29;17.97;;;12.73;;
7807;SDS011;3949;49.254;8.894;2024-03-02T05:53:55;20.50;;;12.00;;
7807;SDS011;3949;49.254;8.894;2024-03-02T05:56:21;17.90;;;12.23;;
7807;SDS011;3949;49.254;8.894;2024-03-02T05:58:47;19.63;;;12.33;;
7807;SDS011;3949;49.254;8.894;2024-03-02T06:01:32;18.03;;;11.50;;
7807;SDS011;3949;49.254;8.894;2024-03-02T06:04:01;18.10;;;11.07;;
7807;SDS011;3949;49.254;8.894;2024-03-02T06:06:27;19.53;;;11.70;;
7807;SDS011;3949;49.254;8.894;2024-03-02T06:08:53;19.33;;;12.63;;
7807;SDS011;3949;49.254;8.894;2024-03-02T06:11:19;22.83;;;13.70;;
7807;SDS011;3949;49.254;8.894;2024-03-02T06:13:45;21.50;;;13.37;;
7807;SDS011;3949;49.254;8.894;2024-03-02T06:16:11;23.83;;;14.60;;
7807;SDS011;3949;49.254;8.894;2024-03-02T06:18:39;19.97;;;13.93;;
7807;SDS011;3949;49.254;8.894;2024-03-02T06:21:05;20.93;;;13.40;;
7807;SDS011;3949;49.254;8.894;2024-03-02T06:23:31;23.67;;;13.23;;
7807;SDS011;3949;49.254;8.894;2024-03-02T06:25:57;24.53;;;13.77;;
7807;SDS011;3949;49.254;8.894;2024-03-02T06:28:26;20.87;;;13.43;;
7807;SDS011;3949;49.254;8.894;2024-03-02T06:30:52;22.07;;;13.23;;
7807;SDS011;3949;49.254;8.894;2024-03-02T06:33:20;22.57;;;13.20;;
7807;SDS011;3949;49.254;8.894;2024-03-02T06:35:46;19.73;;;13.40;;
7807;SDS011;3949;49.254;8.894;2024-03-02T06:38:14;24.60;;;13.33;;
7807;SDS011;3949;49.254;8.894;2024-03-02T06:40:42;24.27;;;13.73;;
7807;SDS011;3949;49.254;8.894;2024-03-02T06:43:08;25.03;;;13.60;;
7807;SDS011;3949;49.254;8.894;2024-03-02T06:45:34;20.50;;;12.53;;
7807;SDS011;3949;49.254;8.894;2024-03-02T06:48:03;26.93;;;14.40;;
7807;SDS011;3949;49.254;8.894;2024-03-02T06:50:29;25.93;;;14.00;;
7807;SDS011;3949;49.254;8.894;2024-03-02T06:52:57;20.40;;;13.33;;
7807;SDS011;3949;49.254;8.894;2024-03-02T06:55:23;20.97;;;12.47;;
7807;SDS011;3949;49.254;8.894;2024-03-02T06:57:51;24.40;;;13.67;;
7807;SDS011;3949;49.254;8.894;2024-03-02T07:00:18;19.63;;;13.13;;
7807;SDS011;3949;49.254;8.894;2024-03-02T07:02:45;23.57;;;13.43;;
7807;SDS011;3949;49.254;8.894;2024-03-02T07:05:14;20.93;;;13.30;;
7807;SDS011;3949;49.254;8.894;2024-03-02T07:07:40;22.30;;;13.77;;
7807;SDS011;3949;49.254;8.894;2024-03-02T07:10:06;23.57;;;13.43;;
7807;SDS011;3949;49.254;8.894;2024-03-02T07:12:32;23.07;;;13.90;;
7807;SDS011;3949;49.254;8.894;2024-03-02T07:14:58;19.77;;;12.83;;
7807;SDS011;3949;49.254;8.894;2024-03-02T07:17:27;23.10;;;13.73;;
7807;SDS011;3949;49.254;8.894;2024-03-02T07:19:53;21.50;;;13.77;;
7807;SDS011;3949;49.254;8.894;2024-03-02T07:22:19;23.50;;;14.07;;
7807;SDS011;3949;49.254;8.894;2024-03-02T07:24:48;24.40;;;14.47;;
7807;SDS011;3949;49.254;8.894;2024-03-02T07:27:19;24.80;;;13.93;;
7807;SDS011;3949;49.254;8.894;2024-03-02T07:29:44;23.10;;;13.70;;
7807;SDS011;3949;49.254;8.894;2024-03-02T07:32:10;22.10;;;13.83;;
7807;SDS011;3949;49.254;8.894;2024-03-02T07:34:39;25.83;;;13.73;;
7807;SDS011;3949;49.254;8.894;2024-03-02T07:37:05;25.07;;;14.10;;
7807;SDS011;3949;49.254;8.894;2024-03-02T07:39:31;21.17;;;12.37;;
7807;SDS011;3949;49.254;8.894;2024-03-02T07:41:59;16.60;;;11.13;;
7807;SDS011;3949;49.254;8.894;2024-03-02T07:44:25;18.87;;;11.30;;
7807;SDS011;3949;49.254;8.894;2024-03-02T07:46:51;17.90;;;12.40;;
7807;SDS011;3949;49.254;8.894;2024-03-02T07:49:20;18.70;;;12.07;;
7807;SDS011;3949;49.254;8.894;2024-03-02T07:51:46;21.07;;;13.67;;
7807;SDS011;3949;49.254;8.894;2024-03-02T07:54:12;20.67;;;13.93;;
7807;SDS011;3949;49.254;8.894;2024-03-02T07:56:38;22.43;;;13.30;;
7807;SDS011;3949;49.254;8.894;2024-03-02T07:59:04;20.97;;;12.87;;
7807;SDS011;3949;49.254;8.894;2024-03-02T08:01:31;21.20;;;13.17;;
7807;SDS011;3949;49.254;8.894;2024-03-02T08:03:58;18.70;;;13.27;;
7807;SDS011;3949;49.254;8.894;2024-03-02T08:06:24;26.50;;;17.47;;
7807;SDS011;3949;49.254;8.894;2024-03-02T08:08:52;22.03;;;14.07;;
7807;SDS011;3949;49.254;8.894;2024-03-02T08:11:19;30.60;;;17.13;;
7807;SDS011;3949;49.254;8.894;2024-03-02T08:13:45;30.00;;;16.60;;
7807;SDS011;3949;49.254;8.894;2024-03-02T08:16:11;25.13;;;14.33;;
7807;SDS011;3949;49.254;8.894;2024-03-02T08:18:37;25.47;;;15.07;;
7807;SDS011;3949;49.254;8.894;2024-03-02T08:21:03;23.70;;;13.87;;
7807;SDS011;3949;49.254;8.894;2024-03-02T08:23:29;22.30;;;14.10;;
7807;SDS011;3949;49.254;8.894;2024-03-02T08:25:55;22.37;;;13.77;;
7807;SDS011;3949;49.254;8.894;2024-03-02T08:28:22;20.47;;;13.60;;
7807;SDS011;3949;49.254;8.894;2024-03-02T08:30:48;23.33;;;13.77;;
7807;SDS011;3949;49.254;8.894;2024-03-02T08:33:14;21.07;;;12.63;;
7807;SDS011;3949;49.254;8.894;2024-03-02T08:35:40;22.80;;;14.53;;
7807;SDS011;3949;49.254;8.894;2024-03-02T08:38:06;25.20;;;14.17;;
7807;SDS011;3949;49.254;8.894;2024-03-02T08:40:32;23.37;;;14.33;;
7807;SDS011;3949;49.254;8.894;2024-03-02T08:43:00;19.50;;;12.70;;
7807;SDS011;3949;49.254;8.894;2024-03-02T08:45:26;19.13;;;12.27;;
7807;SDS011;3949;49.254;8.894;2024-03-02T08:47:52;20.57;;;13.40;;
7807;SDS011;3949;49.254;8.894;2024-03-02T08:50:18;22.27;;;14.33;;
7807;SDS011;3949;49.254;8.894;2024-03-02T08:52:44;20.27;;;12.57;;
7807;SDS011;3949;49.254;8.894;2024-03-02T08:55:12;17.17;;;11.97;;
7807;SDS011;3949;49.254;8.894;2024-03-02T08:57:39;17.00;;;11.87;;
7807;SDS011;3949;49.254;8.894;2024-03-02T09:00:07;32.63;;;22.67;;
7807;SDS011;3949;49.254;8.894;2024-03-02T09:02:33;17.07;;;12.10;;
7807;SDS011;3949;49.254;8.894;2024-03-02T09:04:59;18.80;;;14.10;;
7807;SDS011;3949;49.254;8.894;2024-03-02T09:07:27;15.50;;;11.93;;
7807;SDS011;3949;49.254;8.894;2024-03-02T09:09:56;32.63;;;19.63;;
7807;SDS011;3949;49.254;8.894;2024-03-02T09:12:22;13.57;;;11.03;;
7807;SDS011;3949;49.254;8.894;2024-03-02T09:14:48;13.87;;;9.40;;
7807;SDS011;3949;49.254;8.894;2024-03-02T09:17:16;14.07;;;10.33;;
7807;SDS011;3949;49.254;8.894;2024-03-02T09:19:42;9.70;;;8.13;;
7807;SDS011;3949;49.254;8.894;2024-03-02T09:22:11;8.23;;;6.90;;
7807;SDS011;3949;49.254;8.894;2024-03-02T09:24:37;7.77;;;6.70;;
7807;SDS011;3949;49.254;8.894;2024-03-02T09:27:03;8.47;;;7.13;;
7807;SDS011;3949;49.254;8.894;2024-03-02T09:29:29;9.00;;;7.30;;
7807;SDS011;3949;49.254;8.894;2024-03-02T09:31:55;7.40;;;6.53;;
7807;SDS011;3949;49.254;8.894;2024-03-02T09:34:21;8.13;;;7.30;;
7807;SDS011;3949;49.254;8.894;2024-03-02T09:36:50;8.00;;;6.40;;
7807;SDS011;3949;49.254;8.894;2024-03-02T09:39:17;6.77;;;6.07;;
7807;SDS011;3949;49.254;8.894;2024-03-02T09:41:43;7.03;;;6.20;;
7807;SDS011;3949;49.254;8.894;2024-03-02T09:44:09;8.50;;;6.37;;
7807;SDS011;3949;49.254;8.894;2024-03-02T09:46:35;8.87;;;6.43;;
7807;SDS011;3949;49.254;8.894;2024-03-02T09:49:02;11.23;;;8.83;;
7807;SDS011;3949;49.254;8.894;2024-03-02T09:51:28;8.77;;;5.77;;
7807;SDS011;3949;49.254;8.894;2024-03-02T09:53:54;6.97;;;6.00;;
7807;SDS011;3949;49.254;8.894;2024-03-02T09:56:21;7.30;;;5.80;;
7807;SDS011;3949;49.254;8.894;2024-03-02T09:58:47;6.53;;;5.60;;
7807;SDS011;3949;49.254;8.894;2024-03-02T10:01:13;6.47;;;5.53;;
7807;SDS011;3949;49.254;8.894;2024-03-02T10:03:39;6.30;;;5.63;;
7807;SDS011;3949;49.254;8.894;2024-03-02T10:06:18;7.33;;;6.10;;
7807;SDS011;3949;49.254;8.894;2024-03-02T10:08:44;10.37;;;8.00;;
7807;SDS011;3949;49.254;8.894;2024-03-02T10:11:10;5.67;;;5.17;;
7807;SDS011;3949;49.254;8.894;2024-03-02T10:13:39;5.33;;;4.83;;
7807;SDS011;3949;49.254;8.894;2024-03-02T10:16:14;5.37;;;4.47;;
7807;SDS011;3949;49.254;8.894;2024-03-02T10:18:40;6.50;;;5.20;;
7807;SDS011;3949;49.254;8.894;2024-03-02T10:21:15;5.17;;;4.67;;
7807;SDS011;3949;49.254;8.894;2024-03-02T10:23:41;5.23;;;4.73;;
7807;SDS011;3949;49.254;8.894;2024-03-02T10:26:17;5.30;;;4.83;;
7807;SDS011;3949;49.254;8.894;2024-03-02T10:28:46;6.00;;;5.40;;
7807;SDS011;3949;49.254;8.894;2024-03-02T10:31:12;13.37;;;12.00;;
7807;SDS011;3949;49.254;8.894;2024-03-02T10:33:39;5.20;;;4.37;;
7807;SDS011;3949;49.254;8.894;2024-03-02T10:36:05;4.80;;;4.40;;
7807;SDS011;3949;49.254;8.894;2024-03-02T10:38:31;4.97;;;4.27;;
7807;SDS011;3949;49.254;8.894;2024-03-02T10:40:57;4.63;;;4.23;;
7807;SDS011;3949;49.254;8.894;2024-03-02T10:43:24;4.73;;;4.27;;
7807;SDS011;3949;49.254;8.894;2024-03-02T10:45:51;4.47;;;4.07;;
7807;SDS011;3949;49.254;8.894;2024-03-02T10:48:18;4.97;;;4.57;;
7807;SDS011;3949;49.254;8.894;2024-03-02T10:50:46;4.90;;;4.50;;
7807;SDS011;3949;49.254;8.894;2024-03-02T10:53:12;4.47;;;4.07;;
7807;SDS011;3949;49.254;8.894;2024-03-02T10:55:38;5.40;;;4.90;;
7807;SDS011;3949;49.254;8.894;2024-03-02T10:58:04;4.83;;;4.33;;
7807;SDS011;3949;49.254;8.894;2024-03-02T11:00:33;4.50;;;4.10;;
7807;SDS011;3949;49.254;8.894;2024-03-02T11:03:04;4.70;;;4.30;;
7807;SDS011;3949;49.254;8.894;2024-03-02T11:05:36;3.93;;;3.63;;
7807;SDS011;3949;49.254;8.894;2024-03-02T11:08:04;4.00;;;3.70;;
7807;SDS011;3949;49.254;8.894;2024-03-02T11:10:35;3.97;;;3.67;;
7807;SDS011;3949;49.254;8.894;2024-03-02T11:13:05;4.10;;;3.80;;
7807;SDS011;3949;49.254;8.894;2024-03-02T11:15:32;3.67;;;3.37;;
7807;SDS011;3949;49.254;8.894;2024-03-02T11:18:04;4.50;;;3.47;;
7807;SDS011;3949;49.254;8.894;2024-03-02T11:20:33;4.00;;;3.60;;
7807;SDS011;3949;49.254;8.894;2024-03-02T11:23:07;3.57;;;3.27;;
7807;SDS011;3949;49.254;8.894;2024-03-02T11:25:33;4.47;;;3.97;;
7807;SDS011;3949;49.254;8.894;2024-03-02T11:27:59;4.30;;;4.00;;
7807;SDS011;3949;49.254;8.894;2024-03-02T11:35:25;3.90;;;3.60;;
7807;SDS011;3949;49.254;8.894;2024-03-02T11:37:51;3.57;;;3.27;;
7807;SDS011;3949;49.254;8.894;2024-03-02T11:40:36;3.83;;;3.50;;
7807;SDS011;3949;49.254;8.894;2024-03-02T11:43:02;3.53;;;3.23;;
7807;SDS011;3949;49.254;8.894;2024-03-02T11:45:28;4.00;;;3.70;;
7807;SDS011;3949;49.254;8.894;2024-03-02T11:47:56;4.03;;;2.80;;
7807;SDS011;3949;49.254;8.894;2024-03-02T11:52:55;3.57;;;3.23;;
7807;SDS011;3949;49.254;8.894;2024-03-02T11:55:21;3.87;;;3.57;;
7807;SDS011;3949;49.254;8.894;2024-03-02T11:57:49;3.13;;;2.93;;
7807;SDS011;3949;49.254;8.894;2024-03-02T12:00:19;3.00;;;2.80;;
7807;SDS011;3949;49.254;8.894;2024-03-02T12:02:46;4.13;;;3.73;;
7807;SDS011;3949;49.254;8.894;2024-03-02T12:05:14;3.23;;;2.93;;
7807;SDS011;3949;49.254;8.894;2024-03-02T12:07:40;3.77;;;2.97;;
7807;SDS011;3949;49.254;8.894;2024-03-02T12:10:08;3.43;;;3.13;;
7807;SDS011;3949;49.254;8.894;2024-03-02T12:12:35;2.93;;;2.50;;
7807;SDS011;3949;49.254;8.894;2024-03-02T12:15:01;3.20;;;2.90;;
7807;SDS011;3949;49.254;8.894;2024-03-02T12:17:28;3.03;;;2.73;;
7807;SDS011;3949;49.254;8.894;2024-03-02T12:19:54;3.10;;;2.80;;
7807;SDS011;3949;49.254;8.894;2024-03-02T12:22:23;2.97;;;2.77;;
7807;SDS011;3949;49.254;8.894;2024-03-02T12:24:48;2.93;;;2.70;;
7807;SDS011;3949;49.254;8.894;2024-03-02T12:27:15;3.10;;;2.80;;
7807;SDS011;3949;49.254;8.894;2024-03-02T12:29:41;3.30;;;3.00;;
7807;SDS011;3949;49.254;8.894;2024-03-02T12:32:09;2.73;;;2.50;;
7807;SDS011;3949;49.254;8.894;2024-03-02T12:34:35;5.73;;;5.17;;
7807;SDS011;3949;49.254;8.894;2024-03-02T12:37:03;3.73;;;3.33;;
7807;SDS011;3949;49.254;8.894;2024-03-02T12:39:29;3.97;;;3.67;;
7807;SDS011;3949;49.254;8.894;2024-03-02T12:41:57;3.77;;;3.33;;
7807;SDS011;3949;49.254;8.894;2024-03-02T12:44:23;3.27;;;2.97;;
7807;SDS011;3949;49.254;8.894;2024-03-02T12:46:50;3.87;;;3.57;;
7807;SDS011;3949;49.254;8.894;2024-03-02T12:49:21;2.77;;;2.57;;
7807;SDS011;3949;49.254;8.894;2024-03-02T12:51:47;3.00;;;2.70;;
7807;SDS011;3949;49.254;8.894;2024-03-02T12:54:17;2.93;;;2.50;;
7807;SDS011;3949;49.254;8.894;2024-03-02T12:56:43;4.00;;;3.07;;
7807;SDS011;3949;49.254;8.894;2024-03-02T12:59:21;3.77;;;3.47;;
7807;SDS011;3949;49.254;8.894;2024-03-02T13:01:50;2.40;;;2.20;;
7807;SDS011;3949;49.254;8.894;2024-03-02T13:04:16;2.63;;;2.43;;
7807;SDS011;3949;49.254;8.894;2024-03-02T13:06:44;2.60;;;2.40;;
7807;SDS011;3949;49.254;8.894;2024-03-02T13:09:11;3.30;;;3.00;;
7807;SDS011;3949;49.254;8.894;2024-03-02T13:11:39;3.63;;;3.33;;
7807;SDS011;3949;49.254;8.894;2024-03-02T13:14:06;3.57;;;3.27;;
7807;SDS011;3949;49.254;8.894;2024-03-02T13:16:32;3.00;;;2.80;;
7807;SDS011;3949;49.254;8.894;2024-03-02T13:19:04;3.10;;;2.80;;
7807;SDS011;3949;49.254;8.894;2024-03-02T13:21:30;2.80;;;2.60;;
7807;SDS011;3949;49.254;8.894;2024-03-02T13:23:58;3.10;;;2.80;;
7807;SDS011;3949;49.254;8.894;2024-03-02T13:26:25;2.90;;;2.70;;
7807;SDS011;3949;49.254;8.894;2024-03-02T13:28:51;3.90;;;3.27;;
7807;SDS011;3949;49.254;8.894;2024-03-02T13:31:17;4.47;;;4.07;;
7807;SDS011;3949;49.254;8.894;2024-03-02T13:33:43;2.87;;;2.60;;
7807;SDS011;3949;49.254;8.894;2024-03-02T13:36:09;3.00;;;2.70;;
7807;SDS011;3949;49.254;8.894;2024-03-02T13:38:35;2.60;;;2.40;;
7807;SDS011;3949;49.254;8.894;2024-03-02T13:41:01;2.80;;;2.37;;
7807;SDS011;3949;49.254;8.894;2024-03-02T13:43:27;2.67;;;2.47;;
7807;SDS011;3949;49.254;8.894;2024-03-02T13:45:56;2.40;;;2.20;;
7807;SDS011;3949;49.254;8.894;2024-03-02T13:48:23;2.30;;;2.10;;
7807;SDS011;3949;49.254;8.894;2024-03-02T13:50:51;7.40;;;2.60;;
7807;SDS011;3949;49.254;8.894;2024-03-02T13:53:20;10.30;;;2.13;;
7807;SDS011;3949;49.254;8.894;2024-03-02T13:55:46;2.07;;;1.87;;
7807;SDS011;3949;49.254;8.894;2024-03-02T13:58:12;1.83;;;1.73;;
7807;SDS011;3949;49.254;8.894;2024-03-02T14:00:38;11.20;;;3.00;;
7807;SDS011;3949;49.254;8.894;2024-03-02T14:03:08;12.73;;;3.00;;
7807;SDS011;3949;49.254;8.894;2024-03-02T14:05:34;4.80;;;1.90;;
7807;SDS011;3949;49.254;8.894;2024-03-02T14:08:02;7.37;;;2.23;;
7807;SDS011;3949;49.254;8.894;2024-03-02T14:10:29;4.17;;;2.10;;
7807;SDS011;3949;49.254;8.894;2024-03-02T14:12:57;2.40;;;2.20;;
7807;SDS011;3949;49.254;8.894;2024-03-02T14:15:23;2.60;;;2.17;;
7807;SDS011;3949;49.254;8.894;2024-03-02T14:17:49;2.80;;;1.83;;
7807;SDS011;3949;49.254;8.894;2024-03-02T14:20:16;3.93;;;2.33;;
7807;SDS011;3949;49.254;8.894;2024-03-02T14:22:47;1.77;;;1.67;;
7807;SDS011;3949;49.254;8.894;2024-03-02T14:25:13;1.27;;;1.10;;
7807;SDS011;3949;49.254;8.894;2024-03-02T14:27:41;2.10;;;1.20;;
7807;SDS011;3949;49.254;8.894;2024-03-02T14:30:07;1.63;;;1.53;;
7807;SDS011;3949;49.254;8.894;2024-03-02T14:32:34;2.10;;;1.70;;
7807;SDS011;3949;49.254;8.894;2024-03-02T14:35:00;2.20;;;1.83;;
7807;SDS011;3949;49.254;8.894;2024-03-02T14:37:28;2.17;;;1.90;;
7807;SDS011;3949;49.254;8.894;2024-03-02T14:39:54;2.80;;;2.00;;
7807;SDS011;3949;49.254;8.894;2024-03-02T14:42:23;2.00;;;1.90;;
7807;SDS011;3949;49.254;8.894;2024-03-02T14:44:49;2.73;;;2.10;;
7807;SDS011;3949;49.254;8.894;2024-03-02T14:47:15;2.43;;;1.50;;
7807;SDS011;3949;49.254;8.894;2024-03-02T14:49:42;2.70;;;1.77;;
7807;SDS011;3949;49.254;8.894;2024-03-02T14:52:09;2.20;;;1.83;;
7807;SDS011;3949;49.254;8.894;2024-03-02T14:54:37;1.60;;;1.50;;
7807;SDS011;3949;49.254;8.894;2024-03-02T14:57:03;1.70;;;1.37;;
7807;SDS011;3949;49.254;8.894;2024-03-02T14:59:30;1.63;;;1.40;;
7807;SDS011;3949;49.254;8.894;2024-03-02T15:01:56;1.70;;;1.60;;
7807;SDS011;3949;49.254;8.894;2024-03-02T15:04:22;1.40;;;1.30;;
7807;SDS011;3949;49.254;8.894;2024-03-02T15:06:48;3.10;;;1.27;;